createdAt,value
2022-12-28T00:01:23.304Z,12.55
2022-12-28T00:03:51.781Z,10.32
2022-12-28T00:06:20.514Z,10.88
2022-12-28T00:08:47.889Z,13.27
2022-12-28T00:11:30.234Z,6.68
2022-12-28T00:14:00.470Z,12.45
2022-12-28T00:16:39.834Z,9.87
2022-12-28T00:19:11.232Z,9.13
2022-12-28T00:21:38.824Z,10.30
2022-12-28T00:24:06.343Z,11.32
2022-12-28T00:26:34.996Z,8.57
2022-12-28T00:29:05.242Z,7.13
2022-12-28T00:31:34.312Z,8.27
2022-12-28T00:34:02.679Z,7.60
2022-12-28T00:37:08.349Z,9.13
2022-12-28T00:39:19.576Z,10.95
2022-12-28T00:41:47.244Z,8.35
2022-12-28T00:44:14.506Z,14.18
2022-12-28T00:46:41.731Z,8.15
2022-12-28T00:49:09.156Z,11.07
2022-12-28T00:51:36.527Z,10.52
2022-12-28T00:54:04.251Z,6.85
2022-12-28T00:56:31.566Z,9.25
2022-12-28T00:58:59.722Z,10.88
2022-12-28T01:01:28.473Z,10.63
2022-12-28T01:03:59.011Z,9.00
2022-12-28T01:06:27.464Z,11.05
2022-12-28T01:08:55.323Z,7.78
2022-12-28T01:11:25.398Z,9.23
2022-12-28T01:13:55.420Z,9.38
2022-12-28T01:16:32.824Z,10.05
2022-12-28T01:19:02.023Z,11.30
2022-12-28T01:21:32.385Z,11.85
2022-12-28T01:24:01.932Z,8.75
2022-12-28T01:28:58.614Z,6.50
2022-12-28T01:31:26.557Z,9.10
2022-12-28T01:33:54.417Z,8.48
2022-12-28T01:36:23.848Z,11.65
2022-12-28T01:38:56.626Z,12.13
2022-12-28T01:41:26.644Z,7.05
2022-12-28T01:43:53.953Z,12.85
2022-12-28T01:46:59.163Z,12.80
2022-12-28T01:49:37.353Z,8.35
2022-12-28T01:52:24.841Z,10.57
2022-12-28T01:54:59.918Z,6.55
2022-12-28T01:57:30.318Z,6.93
2022-12-28T02:00:02.109Z,7.68
2022-12-28T02:02:42.408Z,9.00
2022-12-28T02:05:10.129Z,11.43
2022-12-28T02:07:51.352Z,10.48
2022-12-28T02:10:43.852Z,10.18
2022-12-28T02:13:07.250Z,9.82
2022-12-28T02:15:34.639Z,10.38
2022-12-28T02:18:02.476Z,12.55
2022-12-28T02:20:37.252Z,10.18
2022-12-28T02:23:12.964Z,12.30
2022-12-28T02:25:58.686Z,10.10
2022-12-28T02:28:58.707Z,8.43
2022-12-28T02:32:11.402Z,11.55
2022-12-28T02:34:53.616Z,9.40
2022-12-28T02:37:27.519Z,10.95
2022-12-28T02:40:21.725Z,10.02
2022-12-28T02:42:50.277Z,10.60
2022-12-28T02:46:06.150Z,14.98
2022-12-28T02:49:01.703Z,10.45
2022-12-28T02:51:59.215Z,12.93
2022-12-28T02:55:09.951Z,9.10
2022-12-28T02:58:20.452Z,7.43
2022-12-28T03:01:06.222Z,9.23
2022-12-28T03:03:33.463Z,9.45
2022-12-28T03:06:40.793Z,11.13
2022-12-28T03:09:33.238Z,10.70
2022-12-28T03:12:08.837Z,9.20
2022-12-28T03:14:43.933Z,6.20
2022-12-28T03:17:30.424Z,9.45
2022-12-28T03:20:19.350Z,9.15
2022-12-28T03:23:06.442Z,11.95
2022-12-28T03:25:57.060Z,11.45
2022-12-28T03:28:49.565Z,8.30
2022-12-28T03:31:23.260Z,10.55
2022-12-28T03:34:06.880Z,8.73
2022-12-28T03:36:53.758Z,7.40
2022-12-28T03:39:54.176Z,10.05
2022-12-28T03:42:45.578Z,7.82
2022-12-28T03:45:44.261Z,14.55
2022-12-28T03:48:07.091Z,9.88
2022-12-28T03:50:40.196Z,12.20
2022-12-28T03:53:08.959Z,11.30
2022-12-28T03:55:38.153Z,12.30
2022-12-28T03:58:05.964Z,9.13
2022-12-28T04:00:33.444Z,10.10
2022-12-28T04:03:01.347Z,10.38
2022-12-28T04:05:29.261Z,8.98
2022-12-28T04:07:56.674Z,10.43
2022-12-28T04:10:23.934Z,13.02
2022-12-28T04:12:55.576Z,10.68
2022-12-28T04:15:28.214Z,11.60
2022-12-28T04:17:55.562Z,10.27
2022-12-28T04:20:23.784Z,7.50
2022-12-28T04:22:51.646Z,13.07
2022-12-28T04:25:19.256Z,9.48
2022-12-28T04:27:46.780Z,8.70
2022-12-28T04:30:34.023Z,11.15
2022-12-28T04:33:01.509Z,9.02
2022-12-28T04:35:29.372Z,8.52
2022-12-28T04:37:56.966Z,12.23
2022-12-28T04:40:24.316Z,8.98
2022-12-28T04:42:51.534Z,10.68
2022-12-28T04:45:22.136Z,8.02
2022-12-28T04:47:49.576Z,8.82
2022-12-28T04:50:17.122Z,8.40
2022-12-28T04:52:44.401Z,7.13
2022-12-28T04:55:32.832Z,10.90
2022-12-28T04:58:00.986Z,9.48
2022-12-28T05:00:28.420Z,8.73
2022-12-28T05:02:59.332Z,7.68
2022-12-28T05:05:28.153Z,8.75
2022-12-28T05:07:56.006Z,7.90
2022-12-28T05:10:23.348Z,13.18
2022-12-28T05:12:50.766Z,7.00
2022-12-28T05:15:18.017Z,10.88
2022-12-28T05:17:45.299Z,8.00
2022-12-28T05:20:12.738Z,9.15
2022-12-28T05:22:41.186Z,10.95
2022-12-28T05:25:08.811Z,8.20
2022-12-28T05:27:35.995Z,7.53
2022-12-28T05:30:03.604Z,9.32
2022-12-28T05:32:30.864Z,10.90
2022-12-28T05:34:58.289Z,10.93
2022-12-28T05:37:25.531Z,10.43
2022-12-28T05:39:52.945Z,9.98
2022-12-28T05:42:20.192Z,9.35
2022-12-28T05:44:47.460Z,9.98
2022-12-28T05:47:14.710Z,8.80
2022-12-28T05:49:42.110Z,13.27
2022-12-28T05:52:09.329Z,11.77
2022-12-28T05:54:36.569Z,8.88
2022-12-28T05:57:03.858Z,7.57
2022-12-28T05:59:31.440Z,10.75
2022-12-28T06:01:59.231Z,10.27
2022-12-28T06:04:26.697Z,6.82
2022-12-28T06:06:56.732Z,9.63
2022-12-28T06:11:51.273Z,9.18
2022-12-28T06:14:18.506Z,8.88
2022-12-28T06:16:46.129Z,10.25
2022-12-28T06:19:16.348Z,10.52
2022-12-28T06:24:11.996Z,9.30
2022-12-28T06:26:41.049Z,12.23
2022-12-28T06:29:09.355Z,11.82
2022-12-28T06:31:38.950Z,11.30
2022-12-28T06:34:07.965Z,12.15
2022-12-28T06:36:40.546Z,7.97
2022-12-28T06:39:09.997Z,7.78
2022-12-28T06:41:37.893Z,12.27
2022-12-28T06:44:10.317Z,15.05
2022-12-28T06:46:37.959Z,13.73
2022-12-28T06:49:05.509Z,9.38
2022-12-28T06:51:36.406Z,10.27
2022-12-28T06:54:03.863Z,9.50
2022-12-28T06:56:36.015Z,9.82
2022-12-28T06:59:04.564Z,12.43
2022-12-28T07:01:37.846Z,11.68
2022-12-28T07:04:06.448Z,9.23
2022-12-28T07:06:40.017Z,9.48
2022-12-28T07:09:10.567Z,12.85
2022-12-28T07:11:38.246Z,10.20
2022-12-28T07:14:05.600Z,11.00
2022-12-28T07:18:59.821Z,11.18
2022-12-28T07:21:30.431Z,9.98
2022-12-28T07:23:58.289Z,14.23
2022-12-28T07:26:31.018Z,13.98
2022-12-28T07:29:00.147Z,11.13
2022-12-28T07:31:36.947Z,14.93
2022-12-28T07:34:07.398Z,12.98
2022-12-28T07:36:34.755Z,14.23
2022-12-28T07:39:02.564Z,12.70
2022-12-28T07:41:33.195Z,9.45
2022-12-28T07:44:01.050Z,9.02
2022-12-28T07:46:30.649Z,9.50
2022-12-28T07:48:58.337Z,10.18
2022-12-28T07:51:27.804Z,8.43
2022-12-28T07:53:56.283Z,16.17
2022-12-28T07:56:24.329Z,12.10
2022-12-28T07:58:53.421Z,12.80
2022-12-28T08:01:22.381Z,10.15
2022-12-28T08:03:53.583Z,11.52
2022-12-28T08:06:23.025Z,10.23
2022-12-28T08:08:55.427Z,10.60
2022-12-28T08:11:25.801Z,10.93
2022-12-28T08:13:54.886Z,10.98
2022-12-28T08:16:24.510Z,9.57
2022-12-28T08:18:51.927Z,11.98
2022-12-28T08:21:22.188Z,9.63
2022-12-28T08:23:50.682Z,12.75
2022-12-28T08:26:26.078Z,11.02
2022-12-28T08:28:55.981Z,11.80
2022-12-28T08:31:35.215Z,10.80
2022-12-28T08:34:03.712Z,10.00
2022-12-28T08:36:31.662Z,8.63
2022-12-28T08:39:00.506Z,12.65
2022-12-28T08:41:29.136Z,8.73
2022-12-28T08:43:57.378Z,10.38
2022-12-28T08:46:32.533Z,14.95
2022-12-28T08:49:00.930Z,17.73
2022-12-28T08:51:38.520Z,11.52
2022-12-28T08:54:06.394Z,9.10
2022-12-28T08:56:36.568Z,15.82
2022-12-28T08:59:04.958Z,8.05
2022-12-28T09:01:40.818Z,12.75
2022-12-28T09:04:30.208Z,9.88
2022-12-28T09:07:00.508Z,14.10
2022-12-28T09:09:27.996Z,16.05
2022-12-28T09:11:57.905Z,12.80
2022-12-28T09:14:25.197Z,11.77
2022-12-28T09:16:53.670Z,15.02
2022-12-28T09:19:21.486Z,10.25
2022-12-28T09:21:52.405Z,8.98
2022-12-28T09:24:19.903Z,10.20
2022-12-28T09:26:47.197Z,13.02
2022-12-28T09:29:15.019Z,13.70
2022-12-28T09:31:44.244Z,12.55
2022-12-28T09:37:00.880Z,14.02
2022-12-28T09:39:29.191Z,7.85
2022-12-28T09:42:04.020Z,13.23
2022-12-28T09:44:41.953Z,12.52
2022-12-28T09:47:17.229Z,12.68
2022-12-28T09:50:12.306Z,19.05
2022-12-28T09:52:57.349Z,12.30
2022-12-28T09:55:24.896Z,7.13
2022-12-28T09:57:55.661Z,17.60
2022-12-28T10:00:38.996Z,8.38
2022-12-28T10:03:14.578Z,10.60
2022-12-28T10:05:42.133Z,7.45
2022-12-28T10:08:12.321Z,6.97
2022-12-28T10:13:45.523Z,7.47
2022-12-28T10:16:13.630Z,9.05
2022-12-28T10:18:40.891Z,13.60
2022-12-28T10:21:08.381Z,8.05
2022-12-28T10:23:50.214Z,6.85
2022-12-28T10:26:23.909Z,8.32
2022-12-28T10:28:52.120Z,9.07
2022-12-28T10:31:36.752Z,7.90
2022-12-28T10:34:21.172Z,9.00
2022-12-28T10:36:49.732Z,6.15
2022-12-28T10:39:28.327Z,6.18
2022-12-28T10:42:00.837Z,8.55
2022-12-28T10:44:39.783Z,6.72
2022-12-28T10:47:24.719Z,8.38
2022-12-28T10:53:09.177Z,8.05
2022-12-28T10:55:36.749Z,8.25
2022-12-28T10:58:30.362Z,8.70
2022-12-28T11:01:06.706Z,9.93
2022-12-28T11:03:39.120Z,7.18
2022-12-28T11:06:12.606Z,7.95
2022-12-28T11:08:41.095Z,8.02
2022-12-28T11:11:24.864Z,5.57
2022-12-28T11:13:57.233Z,10.30
2022-12-28T11:16:24.721Z,20.58
2022-12-28T11:18:52.487Z,23.73
2022-12-28T11:21:21.640Z,14.32
2022-12-28T11:23:50.955Z,10.93
2022-12-28T11:26:19.551Z,8.33
2022-12-28T11:28:50.339Z,13.20
2022-12-28T11:31:21.432Z,40.72
2022-12-28T11:33:51.619Z,62.72
2022-12-28T11:38:49.643Z,70.65
2022-12-28T11:41:33.481Z,28.95
2022-12-28T11:44:04.635Z,15.15
2022-12-28T11:46:34.990Z,15.98
2022-12-28T11:51:33.657Z,9.13
2022-12-28T11:54:06.136Z,14.02
2022-12-28T11:56:36.519Z,12.13
2022-12-28T11:59:13.383Z,14.95
2022-12-28T12:01:42.319Z,12.65
2022-12-28T12:04:28.776Z,8.93
2022-12-28T12:07:01.253Z,8.80
2022-12-28T12:09:43.638Z,8.45
2022-12-28T12:12:17.872Z,11.48
2022-12-28T12:15:02.976Z,6.60
2022-12-28T12:17:43.098Z,5.55
2022-12-28T12:20:34.409Z,12.20
2022-12-28T12:23:29.499Z,8.45
2022-12-28T12:25:59.623Z,8.98
2022-12-28T12:28:46.648Z,8.48
2022-12-28T12:31:19.277Z,12.20
2022-12-28T12:33:48.582Z,6.07
2022-12-28T12:36:28.909Z,6.53
2022-12-28T12:39:08.717Z,6.53
2022-12-28T12:41:49.270Z,12.07
2022-12-28T12:44:28.434Z,8.88
2022-12-28T12:47:11.277Z,6.30
2022-12-28T12:50:15.862Z,6.68
2022-12-28T12:52:53.968Z,5.93
2022-12-28T12:55:40.305Z,6.95
2022-12-28T12:58:22.614Z,8.40
2022-12-28T13:01:19.736Z,7.20
2022-12-28T13:03:49.772Z,16.85
2022-12-28T13:06:20.077Z,27.05
2022-12-28T13:11:19.382Z,32.33
2022-12-28T13:13:49.193Z,18.55
2022-12-28T13:16:19.803Z,19.13
2022-12-28T13:18:58.353Z,18.17
2022-12-28T13:21:28.294Z,22.67
2022-12-28T13:23:55.607Z,35.67
2022-12-28T13:26:29.214Z,19.02
2022-12-28T13:29:08.082Z,10.73
2022-12-28T13:31:38.365Z,10.10
2022-12-28T13:37:01.557Z,14.63
2022-12-28T13:39:34.108Z,17.38
2022-12-28T13:42:10.488Z,9.82
2022-12-28T13:44:41.729Z,8.77
2022-12-28T13:47:23.288Z,10.30
2022-12-28T13:50:02.885Z,9.77
2022-12-28T13:52:52.817Z,10.20
2022-12-28T13:55:26.422Z,8.23
2022-12-28T13:57:59.845Z,7.25
2022-12-28T14:00:28.499Z,9.20
2022-12-28T14:02:57.077Z,9.48
2022-12-28T14:05:26.698Z,6.63
2022-12-28T14:07:56.153Z,8.00
2022-12-28T14:10:24.182Z,7.07
2022-12-28T14:12:51.757Z,6.32
2022-12-28T14:15:19.367Z,7.30
2022-12-28T14:17:47.620Z,7.00
2022-12-28T14:20:15.515Z,8.25
2022-12-28T14:22:42.831Z,7.70
2022-12-28T14:25:12.946Z,6.45
2022-12-28T14:27:46.467Z,10.48
2022-12-28T14:30:24.325Z,8.38
2022-12-28T14:32:52.714Z,9.00
2022-12-28T14:35:25.952Z,7.30
2022-12-28T14:37:55.764Z,5.32
2022-12-28T14:40:30.674Z,9.13
2022-12-28T14:42:59.522Z,8.00
2022-12-28T14:46:07.316Z,7.30
2022-12-28T14:48:40.206Z,9.68
2022-12-28T14:51:17.430Z,5.95
2022-12-28T14:56:34.764Z,5.97
2022-12-28T14:59:02.425Z,7.50
2022-12-28T15:01:44.730Z,7.88
2022-12-28T15:04:35.765Z,8.98
2022-12-28T15:07:08.246Z,13.20
2022-12-28T15:09:35.998Z,6.75
2022-12-28T15:12:13.259Z,5.30
2022-12-28T15:14:41.735Z,6.68
2022-12-28T15:17:09.821Z,7.63
2022-12-28T15:19:37.155Z,6.43
2022-12-28T15:22:05.247Z,7.82
2022-12-28T15:24:34.339Z,6.88
2022-12-28T15:27:02.854Z,7.68
2022-12-28T15:32:17.478Z,8.07
2022-12-28T15:34:44.765Z,6.15
2022-12-28T15:37:12.032Z,7.22
2022-12-28T15:39:39.545Z,9.70
2022-12-28T15:42:06.893Z,5.70
2022-12-28T15:44:34.133Z,8.70
2022-12-28T15:47:01.431Z,9.38
2022-12-28T15:49:28.956Z,6.40
2022-12-28T15:51:56.228Z,6.28
2022-12-28T15:54:23.662Z,6.85
2022-12-28T15:56:55.408Z,6.63
2022-12-28T15:59:22.841Z,8.90
2022-12-28T16:01:50.231Z,4.63
2022-12-28T16:04:17.694Z,8.07
2022-12-28T16:06:45.481Z,8.80
2022-12-28T16:09:13.946Z,8.15
2022-12-28T16:11:41.728Z,9.77
2022-12-28T16:14:14.000Z,6.55
2022-12-28T16:16:41.797Z,9.15
2022-12-28T16:19:14.967Z,6.43
2022-12-28T16:21:43.241Z,5.63
2022-12-28T16:24:10.861Z,7.13
2022-12-28T16:26:38.371Z,7.25
2022-12-28T16:29:05.643Z,7.95
2022-12-28T16:31:35.271Z,7.13
2022-12-28T16:34:08.410Z,11.40
2022-12-28T16:36:35.867Z,6.10
2022-12-28T16:39:05.513Z,8.82
2022-12-28T16:41:36.600Z,7.82
2022-12-28T16:44:12.338Z,7.72
2022-12-28T16:46:40.033Z,8.48
2022-12-28T16:49:07.297Z,10.13
2022-12-28T16:51:34.713Z,8.73
2022-12-28T16:54:02.246Z,8.02
2022-12-28T16:56:29.598Z,12.50
2022-12-28T16:58:57.581Z,19.50
2022-12-28T17:01:25.170Z,7.00
2022-12-28T17:03:54.521Z,13.75
2022-12-28T17:06:25.717Z,14.00
2022-12-28T17:08:53.124Z,14.63
2022-12-28T17:11:23.411Z,9.48
2022-12-28T17:13:50.811Z,8.93
2022-12-28T17:16:18.298Z,16.85
2022-12-28T17:18:45.607Z,13.68
2022-12-28T17:21:12.899Z,18.60
2022-12-28T17:23:42.641Z,18.20
2022-12-28T17:26:10.037Z,11.38
2022-12-28T17:28:37.696Z,7.07
2022-12-28T17:31:10.826Z,10.15
2022-12-28T17:33:39.973Z,12.85
2022-12-28T17:36:08.747Z,11.20
2022-12-28T17:38:36.238Z,7.95
2022-12-28T17:41:11.068Z,6.75
2022-12-28T17:43:38.794Z,7.35
2022-12-28T17:46:06.514Z,12.57
2022-12-28T17:48:33.850Z,8.18
2022-12-28T17:51:03.522Z,9.93
2022-12-28T17:53:33.978Z,10.38
2022-12-28T17:56:03.093Z,11.05
2022-12-28T17:58:30.784Z,9.93
2022-12-28T18:00:58.531Z,9.45
2022-12-28T18:03:33.234Z,9.25
2022-12-28T18:06:01.471Z,12.40
2022-12-28T18:08:29.075Z,7.68
2022-12-28T18:10:57.091Z,8.82
2022-12-28T18:13:24.698Z,8.35
2022-12-28T18:15:52.316Z,9.40
2022-12-28T18:18:20.053Z,9.10
2022-12-28T18:20:56.401Z,9.90
2022-12-28T18:23:23.692Z,11.43
2022-12-28T18:25:51.064Z,7.78
2022-12-28T18:28:18.344Z,11.85
2022-12-28T18:30:46.002Z,13.90
2022-12-28T18:33:13.270Z,12.55
2022-12-28T18:35:40.729Z,9.93
2022-12-28T18:38:07.992Z,8.70
2022-12-28T18:40:37.880Z,10.38
2022-12-28T18:43:06.088Z,7.22
2022-12-28T18:45:33.401Z,9.18
2022-12-28T18:48:00.919Z,8.75
2022-12-28T18:50:28.244Z,10.30
2022-12-28T18:52:55.491Z,11.07
2022-12-28T18:55:22.849Z,8.43
2022-12-28T18:57:50.247Z,11.15
2022-12-28T19:00:17.818Z,12.65
2022-12-28T19:02:45.556Z,9.02
2022-12-28T19:05:13.012Z,6.90
2022-12-28T19:07:44.505Z,7.65
2022-12-28T19:10:15.978Z,9.88
2022-12-28T19:12:44.164Z,10.82
2022-12-28T19:15:11.767Z,8.50
2022-12-28T19:17:39.914Z,10.55
2022-12-28T19:20:08.036Z,7.32
2022-12-28T19:22:35.372Z,7.72
2022-12-28T19:25:02.764Z,7.38
2022-12-28T19:27:30.061Z,9.75
2022-12-28T19:29:57.390Z,7.78
2022-12-28T19:32:24.763Z,9.02
2022-12-28T19:34:53.519Z,8.48
2022-12-28T19:37:20.949Z,14.85
2022-12-28T19:39:51.117Z,8.05
2022-12-28T19:42:20.850Z,7.40
2022-12-28T19:44:48.138Z,8.50
2022-12-28T19:47:15.447Z,7.65
2022-12-28T19:49:42.792Z,6.55
2022-12-28T19:52:10.272Z,9.00
2022-12-28T19:54:37.725Z,8.77
2022-12-28T19:57:05.219Z,5.88
2022-12-28T19:59:32.842Z,11.38
2022-12-28T20:02:01.270Z,5.43
2022-12-28T20:04:28.630Z,7.63
2022-12-28T20:06:55.996Z,7.95
2022-12-28T20:09:23.332Z,7.68
2022-12-28T20:11:50.855Z,6.32
2022-12-28T20:14:24.837Z,4.95
2022-12-28T20:16:52.642Z,6.68
2022-12-28T20:19:20.056Z,7.53
2022-12-28T20:21:49.425Z,8.50
2022-12-28T20:24:17.602Z,8.07
2022-12-28T20:26:45.043Z,6.50
2022-12-28T20:29:15.943Z,4.32
2022-12-28T20:31:43.665Z,5.70
2022-12-28T20:34:11.175Z,4.63
2022-12-28T20:36:39.821Z,9.18
2022-12-28T20:39:07.187Z,4.30
2022-12-28T20:41:56.797Z,3.85
2022-12-28T20:44:26.477Z,3.90
2022-12-28T20:46:55.121Z,9.90
2022-12-28T20:49:24.193Z,3.38
2022-12-28T20:51:52.420Z,7.68
2022-12-28T20:54:20.410Z,6.30
2022-12-28T20:56:53.966Z,5.00
2022-12-28T20:59:22.683Z,12.80
2022-12-28T21:01:49.991Z,14.68
2022-12-28T21:04:17.567Z,13.00
2022-12-28T21:06:45.854Z,20.30
2022-12-28T21:09:13.328Z,5.40
2022-12-28T21:11:40.547Z,8.57
2022-12-28T21:14:07.801Z,16.80
2022-12-28T21:16:35.202Z,17.10
2022-12-28T21:19:02.647Z,4.95
2022-12-28T21:21:29.854Z,7.43
2022-12-28T21:23:57.135Z,4.97
2022-12-28T21:26:25.667Z,11.48
2022-12-28T21:28:53.004Z,6.82
2022-12-28T21:31:20.373Z,13.95
2022-12-28T21:33:47.778Z,7.15
2022-12-28T21:36:17.003Z,7.00
2022-12-28T21:38:45.579Z,7.10
2022-12-28T21:41:38.174Z,5.65
2022-12-28T21:44:10.819Z,5.85
2022-12-28T21:46:38.350Z,4.55
2022-12-28T21:49:06.288Z,7.13
2022-12-28T21:51:38.503Z,10.48
2022-12-28T21:54:14.513Z,6.30
2022-12-28T21:56:43.179Z,5.68
2022-12-28T21:59:11.630Z,4.63
2022-12-28T22:01:59.374Z,3.92
2022-12-28T22:04:45.875Z,6.38
2022-12-28T22:07:14.806Z,6.03
2022-12-28T22:10:01.224Z,4.53
2022-12-28T22:12:34.467Z,5.50
2022-12-28T22:15:22.112Z,6.30
2022-12-28T22:17:49.678Z,4.32
2022-12-28T22:20:17.214Z,5.82
2022-12-28T22:22:44.464Z,5.18
2022-12-28T22:25:12.419Z,7.53
2022-12-28T22:27:40.048Z,6.30
2022-12-28T22:30:08.286Z,4.28
2022-12-28T22:32:35.595Z,5.10
2022-12-28T22:35:03.465Z,3.88
2022-12-28T22:37:33.542Z,6.63
2022-12-28T22:40:01.416Z,5.47
2022-12-28T22:42:28.778Z,6.03
2022-12-28T22:44:56.616Z,6.18
2022-12-28T22:47:27.335Z,5.10
2022-12-28T22:49:54.857Z,4.32
2022-12-28T22:52:22.167Z,6.22
2022-12-28T22:54:49.964Z,6.95
2022-12-28T22:57:17.326Z,8.70
2022-12-28T22:59:45.229Z,3.22
2022-12-28T23:02:12.792Z,5.88
2022-12-28T23:04:41.018Z,4.40
2022-12-28T23:07:08.465Z,3.72
2022-12-28T23:09:36.503Z,5.40
2022-12-28T23:12:03.988Z,3.42
2022-12-28T23:14:49.737Z,2.38
2022-12-28T23:17:17.531Z,5.07
2022-12-28T23:20:04.459Z,4.13
2022-12-28T23:22:52.332Z,4.78
2022-12-28T23:25:40.194Z,7.45
2022-12-28T23:28:10.128Z,5.50
2022-12-28T23:30:38.903Z,4.78
2022-12-28T23:33:06.230Z,9.07
2022-12-28T23:35:33.653Z,5.45
2022-12-28T23:38:00.895Z,3.33
2022-12-28T23:40:28.396Z,3.60
2022-12-28T23:42:55.809Z,5.43
2022-12-28T23:45:23.163Z,5.30
2022-12-28T23:47:53.342Z,5.15
2022-12-28T23:52:47.960Z,3.58
2022-12-28T23:55:15.442Z,2.65
2022-12-28T23:57:43.318Z,2.28
